Search METAR Data

METAR Data for LHDC:

LHDC 241115Z AUTO 25006KT 8000 RA BKN007 11/10 Q1002 TEMPO SHRA